• Join FlightAware (Why Join?)
  • Login
  • US Flag 
06:58AM EDT


 

Airport Tracker/Info


-or-


 

Live Flight TrackerFlight Track Log ✈ SWA2975 ✈ 08-Jul-2013 ✈ KDEN - KSLC

Flight Track Log - Related Links

Times and Time Zones

All times are in EDT time to prevent confusion due to time zone crossing. See the SWA2975 flight status page for this flight to view local times or setup timezone preferences in your user account.

Time Position Orientation Groundspeed Altitude Reporting Facility
EDT Latitude Longitude Course Direction KTS MPH feet Rate Location/Type
04:04PM 39.8650 -104.6800 270° West 24 28  Level FlightAware
04:05PM 39.8640 -104.6840 252° West 18 21 1,200 Level FlightAware
04:05PM 39.8630 -104.6840 180° South 23 26 1,320 Level FlightAware
04:06PM 39.8600 -104.6840 180° South 25 29 1,380 Level FlightAware
04:06PM 39.8570 -104.6840 180° South 26 30 1,560 Level FlightAware
04:06PM 39.8530 -104.6840 180° South 23 26 1,800 Level FlightAware
04:07PM 39.8490 -104.6840 180° South 29 33 2,160 Level FlightAware
04:08PM 39.8450 -104.6840 180° South 31 36 2,580 Level FlightAware
04:09PM 39.8410 -104.7290 263° West 183 211 5,800 3,360 Climbing FlightAware
04:10PM 39.8420 -104.7570 273° West 190 219 6,600 1,800 Climbing FlightAware
04:10PM 39.8460 -104.7710 290° West 202 232 6,900 1,500 Climbing FlightAware
04:10PM 39.8540 -104.7880 302° West 211 243 7,300 1,200 Climbing FlightAware
04:10PM 39.8700 -104.8190 304° West 246 283 7,800 1,020 Climbing FlightAware
04:11PM 39.8870 -104.8530 303° West 269 310 8,500 1,800 Climbing FlightAware
04:12PM 39.9240 -104.9340 301° West 303 349 10,200 2,280 Climbing FlightAware
04:12PM 39.9450 -104.9930 295° West 315 362 11,500 2,520 Climbing FlightAware
04:13PM 39.9560 -105.0700 281° West 317 365 13,500 2,880 Climbing FlightAware
04:14PM 39.9650 -105.1500 278° West 319 367 15,600 2,760 Climbing FlightAware
04:14PM 39.9680 -105.1850 276° West 324 373 17,100 2,640 Climbing FlightAware
04:15PM 39.9540 -105.3190 262° West 325 374 19,400 2,640 Climbing FlightAware
04:16PM 39.9440 -105.4020 261° West 330 380 21,200 2,220 Climbing FlightAware
04:17PM 39.9310 -105.4790 258° West 341 392 22,500 1,860 Climbing FlightAware
04:17PM 39.9190 -105.5430 256° West 342 394 23,500 1,860 Climbing FlightAware
04:18PM 39.9220 -105.6430 272° West 350 403 25,000 1,740 Climbing FlightAware
04:19PM 39.9280 -105.7280 275° West 358 412 26,100 1,560 Climbing FlightAware
04:19PM 39.9350 -105.8230 276° West 364 419 27,200 1,500 Climbing FlightAware
04:20PM 39.9410 -105.9120 275° West 371 427 28,200 1,380 Climbing FlightAware
04:21PM 39.9470 -106.0030 275° West 378 435 29,100 1,320 Climbing FlightAware
04:21PM 39.9540 -106.0990 275° West 385 443 30,100 1,320 Climbing FlightAware
04:22PM 39.9610 -106.1970 275° West 390 449 31,000 1,200 Climbing FlightAware
04:23PM 39.9680 -106.2980 275° West 393 452 31,900 1,200 Climbing FlightAware
04:24PM 39.9750 -106.4050 275° West 399 459 32,800 1,140 Climbing FlightAware
04:24PM 39.9810 -106.4970 275° West 404 465 33,500 960 Climbing FlightAware
04:25PM 39.9880 -106.6040 275° West 408 470 34,200 900 Climbing FlightAware
04:26PM 39.9940 -106.6980 275° West 411 473 34,800 960 Climbing FlightAware
04:26PM 40.0020 -106.8130 275° West 413 475 35,600 780 Climbing FlightAware
04:27PM 40.0080 -106.9150 274° West 416 479 36,000 240 Climbing FlightAware
04:28PM 40.0150 -107.0150 275° West 413 475 36,000  Level FlightAware
04:28PM 40.0210 -107.1140 275° West 411 473 36,000  Level FlightAware
04:29PM 40.0270 -107.2130 275° West 412 474 36,000  Level FlightAware
04:30PM 40.0340 -107.3270 275° West 413 475 36,000  Level FlightAware
04:31PM 40.0410 -107.4610 274° West 415 478 36,000  Level FlightAware
04:31PM 40.0470 -107.5600 275° West 415 478 36,000  Level FlightAware
04:32PM 40.0530 -107.6710 274° West 413 475 36,000  Level FlightAware
04:33PM 40.0590 -107.7710 275° West 413 475 36,000  Level FlightAware
04:33PM 40.0650 -107.8750 274° West 413 475 36,000  Level FlightAware
04:34PM 40.0700 -107.9710 274° West 410 472 36,000  Level FlightAware
04:35PM 40.0740 -108.0790 273° West 408 470 36,000  Level FlightAware
04:36PM 40.0790 -108.1830 274° West 406 467 36,000  Level FlightAware
04:36PM 40.0830 -108.2820 273° West 405 466 36,000  Level FlightAware
04:37PM 40.0880 -108.3950 273° West 405 466 36,000  Level FlightAware
04:38PM 40.0930 -108.4950 274° West 405 466 36,000  Level FlightAware
04:38PM 40.0970 -108.5950 273° West 407 468 36,000  Level FlightAware
04:39PM 40.1010 -108.7010 273° West 408 470 36,000  Level FlightAware
04:40PM 40.1050 -108.8090 273° West 408 470 36,000  Level FlightAware
04:40PM 40.1090 -108.9080 273° West 408 470 36,000  Level FlightAware
04:41PM 40.1130 -109.0050 273° West 407 468 36,000  Level FlightAware
04:42PM 40.1160 -109.1080 272° West 409 471 36,000  Level FlightAware
04:43PM 40.1200 -109.2190 273° West 408 470 36,000  Level FlightAware
04:43PM 40.1240 -109.3110 273° West 407 468 36,000  Level FlightAware
04:44PM 40.1270 -109.4190 272° West 406 467 36,000 -240 Level FlightAware
04:45PM 40.1310 -109.5260 273° West 404 465 35,700 -660 Descending FlightAware
04:45PM 40.1240 -109.6270 265° West 403 464 35,100 -960 Descending FlightAware
04:46PM 40.1160 -109.7290 264° West 406 467 34,400 -960 Descending FlightAware
04:47PM 40.1060 -109.8250 262° West 407 468 33,800 -960 Descending FlightAware
04:47PM 40.0890 -109.9320 258° West 411 473 33,100 -1,020 Descending FlightAware
04:48PM 40.0760 -110.0180 259° West 416 479 32,500 -1,020 Descending FlightAware
04:49PM 40.0580 -110.1390 259° West 420 483 31,700 -960 Descending FlightAware
04:50PM 40.0420 -110.2410 258° West 422 486 31,100 -1,320 Descending FlightAware
04:51PM 40.0340 -110.3560 265° West 444 511 29,000 -1,620 Descending FlightAware
04:52PM 40.0580 -110.5670 279° West 449 517 27,800 -1,800 Descending FlightAware
04:53PM 40.0640 -110.7110 273° West 456 525 26,300 -1,260 Descending FlightAware
04:53PM 40.0690 -110.7790 276° West 431 496 26,000 -240 Descending FlightAware
04:54PM 40.0780 -110.8910 276° West 412 474 26,000  Level FlightAware
04:54PM 40.0850 -110.9660 277° West 412 474 26,000  Level FlightAware
04:55PM 40.0930 -111.0670 276° West 412 474 26,000  Level FlightAware
04:56PM 40.0990 -111.1430 276° West 412 474 26,000  Level FlightAware
04:57PM 40.1070 -111.2470 276° West 412 474 26,000  Level FlightAware
04:57PM 40.1130 -111.3240 276° West 412 474 26,000 -2,520 Level FlightAware
05:00PM 40.1730 -111.7010 282° West 360 414 17,900 -2,880 Descending FlightAware
05:01PM 40.1900 -111.7800 286° West 358 412 16,600 -1,980 Descending FlightAware
05:01PM 40.2120 -111.8780 286° West 352 405 15,100 -1,680 Descending FlightAware
05:02PM 40.2310 -111.9610 287° West 349 402 14,200 -1,620 Descending FlightAware
05:03PM 40.2480 -112.0350 287° West 346 398 13,000 -960 Descending FlightAware
05:03PM 40.2790 -112.1160 297° West 339 390 12,900 -120 Descending FlightAware
05:04PM 40.2980 -112.1340 324° Northwest 342 394 12,900  Level FlightAware
05:04PM 40.3540 -112.1820 327° Northwest 342 394 12,900  Level FlightAware
05:05PM 40.4190 -112.2220 335° Northwest 339 390 12,900  Level FlightAware
05:06PM 40.5010 -112.2130 North 353 406 12,900 -180 Level FlightAware
05:07PM 40.5680 -112.1820 19° North 354 407 12,700 -600 Descending FlightAware
05:07PM 40.6330 -112.1520 19° North 353 406 12,100 -1,200 Descending FlightAware
05:08PM 40.6980 -112.1220 19° North 326 375 11,100 -900 Descending FlightAware
05:09PM 40.7500 -112.1000 18° North 286 329 10,900 -180 Descending FlightAware
05:10PM 40.8020 -112.0810 15° North 237 273 10,900 -120 Level FlightAware
05:10PM 40.8310 -112.0830 357° North 196 226 10,800 -960 Descending FlightAware
05:10PM 40.8560 -112.0860 355° North 195 224 10,000 -1,800 Descending FlightAware
05:11PM 40.8800 -112.0870 358° North 191 220 9,200 -1,980 Descending FlightAware
05:11PM 40.9040 -112.0760 19° North 199 229 8,200 -1,800 Descending FlightAware
05:12PM 40.9080 -112.0660 62° Northeast 194 223 8,000 -1,560 Descending FlightAware
05:12PM 40.9130 -112.0280 80° East 185 213 7,100 -1,620 Descending FlightAware
05:13PM 40.9070 -112.0010 106° East 180 207 6,400 -1,680 Descending FlightAware
05:13PM 40.9000 -111.9940 143° Southeast 178 205 6,100 -1,380 Descending FlightAware
05:13PM 40.8920 -111.9890 155° Southeast 166 191 5,900 -1,080 Descending FlightAware
05:14PM 40.8650 -111.9830 170° South 166 191 5,300 -1,080 Descending FlightAware
05:14PM 40.8420 -111.9810 176° South 172 198 4,800 -1,020 Descending FlightAware
05:14PM 40.8220 -111.9790 176° South 168 193 4,400 -900 Descending FlightAware
05:15PM 40.8070 -111.9770 174° South 171 197 4,100 -240 Descending FlightAware
05:15PM 40.7894 -111.9742 174° South 158 182 4,200 120 Climbing Salt Lake Center
05:17PM 40.7833 -111.9667 North  Level FlightAware Approximate